createdAt,value
2018-08-31T00:00:26.538Z,38.9
2018-08-31T00:01:16.383Z,38.9
2018-08-31T00:02:05.901Z,38.9
2018-08-31T00:02:56.540Z,38.9
2018-08-31T00:03:46.787Z,38.9
2018-08-31T00:04:36.620Z,38.9
2018-08-31T00:05:26.142Z,38.9
2018-08-31T00:06:16.192Z,38.9
2018-08-31T00:07:07.081Z,38.9
2018-08-31T00:07:56.872Z,38.9
2018-08-31T00:08:46.109Z,38.9
2018-08-31T00:09:37.277Z,38.9
2018-08-31T00:10:27.502Z,38.9
2018-08-31T00:11:17.387Z,38.8
2018-08-31T00:12:06.332Z,38.8
2018-08-31T00:31:32.364Z,38.7
2018-08-31T00:32:21.078Z,38.7
2018-08-31T00:33:10.910Z,38.7
2018-08-31T00:34:01.821Z,38.7
2018-08-31T00:34:50.995Z,38.7
2018-08-31T00:35:41.645Z,38.7
2018-08-31T00:36:31.687Z,38.7
2018-08-31T00:37:21.494Z,38.7
2018-08-31T00:38:11.818Z,38.7
2018-08-31T00:39:01.902Z,38.7
2018-08-31T00:39:51.412Z,38.7
2018-08-31T00:40:41.477Z,38.7
2018-08-31T00:41:32.030Z,38.7
2018-08-31T00:42:22.469Z,38.7
2018-08-31T00:43:11.889Z,38.6
2018-08-31T00:44:02.310Z,38.6
2018-08-31T00:44:51.742Z,38.6
2018-08-31T00:45:42.924Z,38.6
2018-08-31T00:46:32.736Z,38.6
2018-08-31T00:47:22.232Z,38.6
2018-08-31T00:48:12.899Z,38.6
2018-08-31T00:49:02.685Z,38.6
2018-08-31T00:49:52.466Z,38.6
2018-08-31T00:50:42.839Z,38.6
2018-08-31T00:51:32.274Z,38.6
2018-08-31T00:52:23.469Z,38.6
2018-08-31T00:53:12.986Z,38.6
2018-08-31T00:54:03.054Z,38.6
2018-08-31T00:54:53.089Z,38.6
2018-08-31T00:55:43.164Z,38.6
2018-08-31T00:56:32.679Z,38.6
2018-08-31T00:57:23.014Z,38.6
2018-08-31T00:58:12.811Z,38.6
2018-08-31T00:59:03.761Z,38.6
2018-08-31T00:59:52.899Z,38.6
2018-08-31T01:00:43.836Z,38.6
2018-08-31T01:01:33.581Z,38.6
2018-08-31T01:02:23.356Z,38.6
2018-08-31T01:03:13.251Z,38.6
2018-08-31T01:04:03.827Z,38.5
2018-08-31T01:04:53.884Z,38.6
2018-08-31T01:05:43.049Z,38.5
2018-08-31T01:06:33.953Z,38.6
2018-08-31T01:07:23.730Z,38.5
2018-08-31T01:08:13.550Z,38.5
2018-08-31T01:09:04.467Z,38.5
2018-08-31T01:09:54.233Z,38.5
2018-08-31T01:10:43.993Z,38.5
2018-08-31T01:11:33.805Z,38.5
2018-08-31T01:12:24.960Z,38.5
2018-08-31T01:13:14.800Z,38.5
2018-08-31T01:14:04.624Z,38.5
2018-08-31T01:14:54.732Z,38.4
2018-08-31T01:15:44.712Z,38.5
2018-08-31T01:16:34.804Z,38.4
2018-08-31T01:17:24.551Z,38.4
2018-08-31T01:18:14.874Z,38.4
2018-08-31T01:19:04.972Z,38.4
2018-08-31T01:19:54.742Z,38.4
2018-08-31T01:20:45.094Z,38.4
2018-08-31T01:21:34.863Z,38.4
2018-08-31T01:22:25.473Z,38.4
2018-08-31T01:23:15.550Z,38.4
2018-08-31T01:24:05.074Z,38.4
2018-08-31T01:24:55.750Z,38.4
2018-08-31T01:25:45.798Z,38.4
2018-08-31T01:26:35.247Z,38.4
2018-08-31T01:27:26.140Z,38.4
2018-08-31T01:28:15.517Z,38.4
2018-08-31T01:29:05.745Z,38.4
2018-08-31T01:29:55.819Z,38.4
2018-08-31T01:30:45.552Z,38.4
2018-08-31T01:31:35.932Z,38.4
2018-08-31T01:32:25.403Z,38.4
2018-08-31T01:33:16.327Z,38.4
2018-08-31T01:34:06.669Z,38.4
2018-08-31T01:34:56.197Z,38.4
2018-08-31T01:35:46.032Z,38.4
2018-08-31T01:36:36.339Z,38.4
2018-08-31T01:37:26.368Z,38.4
2018-08-31T01:38:16.755Z,38.3
2018-08-31T01:39:06.561Z,38.3
2018-08-31T01:39:56.336Z,38.4
2018-08-31T01:40:46.063Z,38.3
2018-08-31T01:41:36.169Z,38.3
2018-08-31T01:42:26.489Z,38.3
2018-08-31T01:43:16.839Z,38.3
2018-08-31T01:44:07.472Z,38.3
2018-08-31T01:44:56.943Z,38.3
2018-08-31T01:45:46.436Z,38.3
2018-08-31T01:46:37.136Z,38.3
2018-08-31T01:47:26.844Z,38.3
2018-08-31T01:48:17.204Z,38.3
2018-08-31T01:49:07.547Z,38.3
2018-08-31T01:49:56.727Z,38.3
2018-08-31T01:50:46.538Z,38.3
2018-08-31T01:51:37.521Z,38.3
2018-08-31T01:52:27.791Z,38.3
2018-08-31T01:53:17.585Z,38.3
2018-08-31T01:54:08.020Z,38.3
2018-08-31T01:54:57.441Z,38.3
2018-08-31T01:55:47.771Z,38.3
2018-08-31T01:56:37.550Z,38.3
2018-08-31T01:57:27.656Z,38.3
2018-08-31T01:58:17.963Z,38.3
2018-08-31T01:59:08.051Z,38.3
2018-08-31T01:59:57.839Z,38.3
2018-08-31T02:00:48.158Z,38.2
2018-08-31T02:01:38.235Z,38.2
2018-08-31T02:02:28.048Z,38.2
2018-08-31T02:03:18.355Z,38.2
2018-08-31T02:04:09.785Z,38.2
2018-08-31T02:04:57.934Z,38.2
2018-08-31T02:05:48.812Z,38.2
2018-08-31T02:06:38.897Z,38.2
2018-08-31T02:07:28.710Z,38.2
2018-08-31T02:08:18.707Z,38.2
2018-08-31T02:09:08.812Z,38.2
2018-08-31T02:09:59.224Z,38.2
2018-08-31T02:10:48.105Z,38.2
2018-08-31T02:11:38.451Z,38.2
2018-08-31T02:12:28.513Z,38.1
2018-08-31T02:13:18.836Z,38.2
2018-08-31T02:14:08.913Z,38.1
2018-08-31T02:14:59.547Z,38.1
2018-08-31T02:15:49.560Z,38.1
2018-08-31T02:16:39.660Z,38.1
2018-08-31T02:17:29.160Z,38.1
2018-08-31T02:18:19.509Z,38.1
2018-08-31T02:19:08.745Z,38.1
2018-08-31T02:19:59.706Z,38.1
2018-08-31T02:20:49.437Z,38.1
2018-08-31T02:21:39.915Z,38.1
2018-08-31T02:22:29.643Z,38.1
2018-08-31T02:23:19.731Z,38.1
2018-08-31T02:24:09.406Z,38.1
2018-08-31T02:24:59.475Z,38.1
2018-08-31T02:25:50.649Z,38.1
2018-08-31T02:26:40.749Z,38.1
2018-08-31T02:27:30.218Z,38.1
2018-08-31T02:28:20.017Z,38.1
2018-08-31T02:29:10.056Z,38.1
2018-08-31T02:30:00.678Z,38.1
2018-08-31T02:30:49.353Z,38.1
2018-08-31T02:31:40.828Z,38.1
2018-08-31T02:32:30.606Z,38.1
2018-08-31T02:33:20.674Z,38
2018-08-31T02:34:11.039Z,38.1
2018-08-31T02:35:00.524Z,38.1
2018-08-31T02:35:50.581Z,38
2018-08-31T02:36:41.215Z,38.1
2018-08-31T02:37:31.015Z,38
2018-08-31T02:38:21.333Z,38
2018-08-31T02:39:11.612Z,38
2018-08-31T02:40:01.196Z,38
2018-08-31T02:40:51.538Z,38
2018-08-31T02:41:41.015Z,38
2018-08-31T02:42:31.098Z,38
2018-08-31T02:43:21.143Z,38
2018-08-31T02:44:11.530Z,38
2018-08-31T02:45:01.811Z,38
2018-08-31T02:45:51.657Z,37.9
2018-08-31T02:46:41.690Z,37.9
2018-08-31T02:47:32.010Z,37.9
2018-08-31T02:48:21.855Z,37.9
2018-08-31T02:49:11.620Z,37.9
2018-08-31T02:50:01.656Z,37.9
2018-08-31T02:50:52.244Z,37.9
2018-08-31T02:51:41.775Z,37.9
2018-08-31T02:52:31.878Z,37.9
2018-08-31T02:53:21.912Z,37.9
2018-08-31T02:54:12.613Z,37.9
2018-08-31T02:55:02.620Z,37.9
2018-08-31T02:55:51.873Z,37.9
2018-08-31T02:56:42.209Z,37.9
2018-08-31T02:57:32.828Z,37.9
2018-08-31T02:58:22.604Z,37.9
2018-08-31T02:59:13.032Z,37.9
2018-08-31T03:00:03.022Z,37.9
2018-08-31T03:00:53.024Z,37.9
2018-08-31T03:01:42.635Z,37.9
2018-08-31T03:02:32.886Z,37.9
2018-08-31T03:03:22.115Z,37.9
2018-08-31T03:04:13.042Z,37.9
2018-08-31T03:05:03.414Z,37.9
2018-08-31T03:05:53.179Z,37.9
2018-08-31T03:06:43.217Z,37.9
2018-08-31T03:07:32.438Z,37.9
2018-08-31T03:08:22.859Z,37.9
2018-08-31T03:09:13.451Z,37.8
2018-08-31T03:10:03.572Z,37.8
2018-08-31T03:10:53.869Z,37.8
2018-08-31T03:11:45.135Z,37.8
2018-08-31T03:12:33.744Z,37.8
2018-08-31T03:13:23.539Z,37.8
2018-08-31T03:14:13.811Z,37.9
2018-08-31T03:15:03.869Z,37.8
2018-08-31T03:15:54.246Z,37.8
2018-08-31T03:16:44.270Z,37.8
2018-08-31T03:17:34.376Z,37.8
2018-08-31T03:18:23.568Z,37.8
2018-08-31T03:19:14.335Z,37.8
2018-08-31T03:20:04.108Z,37.8
2018-08-31T03:20:54.323Z,37.8
2018-08-31T03:21:44.966Z,37.8
2018-08-31T03:22:34.728Z,37.8
2018-08-31T03:23:24.799Z,37.8
2018-08-31T03:24:14.592Z,37.8
2018-08-31T03:25:04.670Z,37.8
2018-08-31T03:25:54.794Z,37.8
2018-08-31T03:26:44.767Z,37.8
2018-08-31T03:27:34.567Z,37.8
2018-08-31T03:28:25.192Z,37.8
2018-08-31T03:29:14.974Z,37.8
2018-08-31T03:30:05.090Z,37.8
2018-08-31T03:30:55.135Z,37.8
2018-08-31T03:31:44.349Z,37.8
2018-08-31T03:32:35.082Z,37.8
2018-08-31T03:33:25.334Z,37.8
2018-08-31T03:34:15.340Z,37.8
2018-08-31T03:35:05.271Z,37.8
2018-08-31T03:35:55.432Z,37.7
2018-08-31T03:36:45.764Z,37.7
2018-08-31T03:37:35.071Z,37.7
2018-08-31T03:38:25.969Z,37.8
2018-08-31T03:39:16.044Z,37.7
2018-08-31T03:40:05.809Z,37.7
2018-08-31T03:40:56.119Z,37.7
2018-08-31T03:41:45.667Z,37.7
2018-08-31T03:42:35.119Z,37.7
2018-08-31T03:43:25.854Z,37.7
2018-08-31T03:44:15.540Z,37.7
2018-08-31T03:45:05.913Z,37.7
2018-08-31T03:45:56.759Z,37.7
2018-08-31T03:46:46.016Z,37.7
2018-08-31T03:47:36.097Z,37.6
2018-08-31T03:48:26.478Z,37.6
2018-08-31T03:49:16.228Z,37.6
2018-08-31T03:50:06.578Z,37.6
2018-08-31T03:50:56.328Z,37.6
2018-08-31T03:51:47.028Z,37.6
2018-08-31T03:52:36.806Z,37.6
2018-08-31T03:53:26.261Z,37.6
2018-08-31T03:54:17.157Z,37.6
2018-08-31T03:55:07.259Z,37.6
2018-08-31T03:55:57.285Z,37.6
2018-08-31T03:56:46.770Z,37.6
2018-08-31T03:57:37.403Z,37.6
2018-08-31T03:58:26.613Z,37.6
2018-08-31T03:59:17.240Z,37.6
2018-08-31T04:00:07.343Z,37.6
2018-08-31T04:00:57.743Z,37.6
2018-08-31T04:01:47.474Z,37.6
2018-08-31T04:02:37.225Z,37.6
2018-08-31T04:03:27.930Z,37.6
2018-08-31T04:04:17.664Z,37.6
2018-08-31T04:05:07.756Z,37.6
2018-08-31T04:05:57.799Z,37.6
2018-08-31T04:06:48.116Z,37.6
2018-08-31T04:07:37.872Z,37.6
2018-08-31T04:08:28.262Z,37.6
2018-08-31T04:09:17.520Z,37.6
2018-08-31T04:10:08.141Z,37.6
2018-08-31T04:10:58.439Z,37.6
2018-08-31T04:11:48.477Z,37.5
2018-08-31T04:12:37.983Z,37.5
2018-08-31T04:13:27.802Z,37.5
2018-08-31T04:14:18.744Z,37.6
2018-08-31T04:15:09.706Z,37.5
2018-08-31T04:15:58.276Z,37.5
2018-08-31T04:16:47.724Z,37.5
2018-08-31T04:17:37.834Z,37.5
2018-08-31T04:18:29.042Z,37.5
2018-08-31T04:19:19.124Z,37.5
2018-08-31T04:20:09.127Z,37.5
2018-08-31T04:20:59.216Z,37.5
2018-08-31T04:21:48.426Z,37.5
2018-08-31T04:22:39.119Z,37.5
2018-08-31T04:23:28.878Z,37.4
2018-08-31T04:24:19.251Z,37.5
2018-08-31T04:25:09.058Z,37.5
2018-08-31T04:25:58.581Z,37.4
2018-08-31T04:26:48.819Z,37.4
2018-08-31T04:27:39.166Z,37.4
2018-08-31T04:28:29.144Z,37.4
2018-08-31T04:29:19.426Z,37.4
2018-08-31T04:30:09.216Z,37.4
2018-08-31T04:30:59.231Z,37.5
2018-08-31T04:31:49.185Z,37.4
2018-08-31T04:32:39.297Z,37.4
2018-08-31T04:33:29.358Z,37.4
2018-08-31T04:34:20.051Z,37.4
2018-08-31T04:35:09.486Z,37.4
2018-08-31T04:35:59.508Z,37.4
2018-08-31T04:36:50.123Z,37.4
2018-08-31T04:37:39.376Z,37.4
2018-08-31T04:38:30.506Z,37.4
2018-08-31T04:39:20.092Z,37.4
2018-08-31T04:40:09.871Z,37.4
2018-08-31T04:40:59.083Z,37.4
2018-08-31T04:41:50.853Z,37.4
2018-08-31T04:42:40.808Z,37.4
2018-08-31T05:00:17.727Z,37.3
2018-08-31T05:01:08.504Z,37.3
2018-08-31T05:01:59.095Z,37.3
2018-08-31T05:02:49.405Z,37.3
2018-08-31T05:03:39.022Z,37.3
2018-08-31T05:04:28.839Z,37.3
2018-08-31T05:05:18.939Z,37.3
2018-08-31T05:06:09.138Z,37.3
2018-08-31T05:06:59.719Z,37.3
2018-08-31T05:07:49.509Z,37.3
2018-08-31T05:08:38.297Z,37.3
2018-08-31T05:09:29.383Z,37.3
2018-08-31T05:10:19.419Z,37.3
2018-08-31T05:11:09.212Z,37.3
2018-08-31T05:11:59.553Z,37.3
2018-08-31T05:12:50.171Z,37.3
2018-08-31T05:13:39.679Z,37.3
2018-08-31T05:14:29.576Z,37.3
2018-08-31T05:15:20.167Z,37.3
2018-08-31T05:16:11.651Z,37.3
2018-08-31T05:17:00.264Z,37.3
2018-08-31T05:17:50.328Z,37.3
2018-08-31T05:18:40.626Z,37.3
2018-08-31T05:19:30.101Z,37.3
2018-08-31T05:20:20.769Z,37.3
2018-08-31T05:21:10.348Z,37.3
2018-08-31T05:22:01.073Z,37.3
2018-08-31T05:22:51.977Z,37.3
2018-08-31T05:23:41.220Z,37.3
2018-08-31T05:24:30.809Z,37.3
2018-08-31T05:25:21.212Z,37.2
2018-08-31T05:26:11.226Z,37.2
2018-08-31T05:27:00.698Z,37.2
2018-08-31T05:27:51.020Z,37.2
2018-08-31T05:28:41.213Z,37.2
2018-08-31T05:29:31.256Z,37.2
2018-08-31T05:30:21.314Z,37.2
2018-08-31T05:31:11.648Z,37.2
2018-08-31T05:32:01.634Z,37.2
2018-08-31T05:32:51.783Z,37.2
2018-08-31T05:33:41.302Z,37.2
2018-08-31T05:34:30.245Z,37.2
2018-08-31T05:35:20.607Z,37.2
2018-08-31T05:36:11.460Z,37.1
2018-08-31T05:37:00.510Z,37.2
2018-08-31T05:37:51.063Z,37.1
2018-08-31T05:38:41.682Z,37.1
2018-08-31T05:39:31.207Z,37.1
2018-08-31T05:40:21.562Z,37.1
2018-08-31T05:41:11.523Z,37.1
2018-08-31T05:42:02.390Z,37.1
2018-08-31T05:42:51.701Z,37.1
2018-08-31T05:43:42.262Z,37.1
2018-08-31T05:44:32.054Z,37.1
2018-08-31T05:45:21.347Z,37.1
2018-08-31T05:46:11.919Z,37.1
2018-08-31T05:47:02.007Z,37.1
2018-08-31T05:47:50.912Z,37.1
2018-08-31T05:48:42.994Z,37.1
2018-08-31T05:49:32.146Z,37.1
2018-08-31T05:50:22.807Z,37.1
2018-08-31T05:51:13.111Z,37.1
2018-08-31T05:52:02.639Z,37.1
2018-08-31T05:52:52.371Z,37.1
2018-08-31T05:53:43.764Z,37.1
2018-08-31T05:54:33.127Z,37.1
2018-08-31T05:55:22.902Z,37.1
2018-08-31T05:56:12.938Z,37.1
2018-08-31T05:57:03.288Z,37.1
2018-08-31T05:57:53.108Z,36
2018-08-31T05:58:42.604Z,28.4
2018-08-31T05:59:33.746Z,33.7
2018-08-31T06:00:23.346Z,36.4
2018-08-31T06:01:14.207Z,36.9
2018-08-31T06:02:04.292Z,36.8
2018-08-31T06:02:54.083Z,36.8
2018-08-31T06:03:43.839Z,36.6
2018-08-31T06:04:34.143Z,36.4
2018-08-31T06:05:23.935Z,36.3
2018-08-31T06:06:13.151Z,36.1
2018-08-31T06:07:04.325Z,36.1
2018-08-31T06:07:53.901Z,36.2
2018-08-31T06:08:43.935Z,36.2
2018-08-31T06:09:33.951Z,36.3
2018-08-31T06:10:24.122Z,36.3
2018-08-31T06:11:14.050Z,36.4
2018-08-31T06:12:06.393Z,36.5
2018-08-31T06:12:54.010Z,36.6
2018-08-31T06:13:44.573Z,36.6
2018-08-31T06:14:34.382Z,36.7
2018-08-31T06:15:24.432Z,36.6
2018-08-31T06:16:14.798Z,34.8
2018-08-31T06:17:04.563Z,39.9
2018-08-31T06:17:54.634Z,42.1
2018-08-31T06:18:44.749Z,41.9
2018-08-31T06:19:35.067Z,41.2
2018-08-31T06:20:24.822Z,40.8
2018-08-31T06:21:15.985Z,40.9
2018-08-31T06:22:05.057Z,41.6
2018-08-31T06:22:54.491Z,42.3
2018-08-31T06:23:45.369Z,42.9
2018-08-31T06:24:35.427Z,43.2
2018-08-31T06:25:25.459Z,43.4
2018-08-31T06:26:15.546Z,43.4
2018-08-31T06:27:05.328Z,43.6
2018-08-31T06:27:54.346Z,43.8
2018-08-31T06:28:45.048Z,43.9
2018-08-31T06:29:35.059Z,44.2
2018-08-31T06:30:24.616Z,44.4
2018-08-31T06:31:15.720Z,44.5
2018-08-31T06:32:05.513Z,44.7
2018-08-31T06:32:56.393Z,44.8
2018-08-31T06:33:45.485Z,44.9
2018-08-31T06:34:35.736Z,45.1
2018-08-31T06:35:25.779Z,45.3
2018-08-31T06:36:16.140Z,45.4
2018-08-31T06:37:05.394Z,45.6
2018-08-31T06:37:56.146Z,45.7
2018-08-31T06:38:45.503Z,45.9
2018-08-31T06:39:36.599Z,46
2018-08-31T06:40:26.082Z,46.1
2018-08-31T06:41:16.449Z,46.3
2018-08-31T06:42:06.763Z,46.4
2018-08-31T06:42:57.121Z,46.5
2018-08-31T06:43:46.673Z,46.6
2018-08-31T06:44:36.685Z,46.8
2018-08-31T06:45:27.021Z,46.8
2018-08-31T06:46:17.108Z,47
2018-08-31T06:47:07.160Z,47.1
2018-08-31T06:47:57.183Z,47.3
2018-08-31T06:48:47.064Z,47.4
2018-08-31T06:49:37.359Z,47.4
2018-08-31T06:50:27.672Z,47.6
2018-08-31T06:51:16.892Z,47.8
2018-08-31T06:52:07.590Z,47.8
2018-08-31T06:52:57.590Z,47.9
2018-08-31T06:53:46.850Z,48.1
2018-08-31T06:54:37.770Z,48.2
2018-08-31T06:55:26.836Z,48.3
2018-08-31T06:56:17.876Z,48.4
2018-08-31T06:57:08.236Z,48.5
2018-08-31T06:57:57.729Z,48.6
2018-08-31T06:58:48.069Z,48.8
2018-08-31T06:59:37.877Z,48.9
2018-08-31T07:00:28.465Z,49
2018-08-31T07:01:17.988Z,49.1
2018-08-31T07:02:08.589Z,49.3
2018-08-31T07:02:58.239Z,49.4
2018-08-31T07:03:49.378Z,49.5
2018-08-31T07:04:37.969Z,49.6
2018-08-31T07:05:27.754Z,49.8
2018-08-31T07:06:18.636Z,49.9
2018-08-31T07:07:07.671Z,50
2018-08-31T07:07:59.347Z,50.1
2018-08-31T07:08:49.567Z,50.3
2018-08-31T07:09:39.949Z,50.4
2018-08-31T07:10:28.696Z,50.5
2018-08-31T07:11:19.333Z,50.6
2018-08-31T07:12:08.387Z,50.8
2018-08-31T07:12:58.676Z,50.9
2018-08-31T07:13:49.208Z,51
2018-08-31T07:14:39.285Z,51.1
2018-08-31T07:15:29.078Z,51.3
2018-08-31T07:16:19.965Z,51.4
2018-08-31T07:17:09.239Z,51.5
2018-08-31T07:17:58.728Z,51.7
2018-08-31T07:18:49.908Z,51.8
2018-08-31T07:19:40.344Z,51.9
2018-08-31T07:20:28.931Z,52.1
2018-08-31T07:21:19.346Z,52.1
2018-08-31T07:22:09.600Z,52.3
2018-08-31T07:23:50.309Z,52.5
2018-08-31T07:24:40.084Z,52.6
2018-08-31T07:25:29.085Z,52.8
2018-08-31T07:26:20.426Z,52.9
2018-08-31T07:27:09.729Z,53
2018-08-31T07:28:00.070Z,53.1
2018-08-31T07:28:50.402Z,53.3
2018-08-31T07:29:40.773Z,53.4
2018-08-31T07:30:30.009Z,53.5
2018-08-31T07:31:21.180Z,53.6
2018-08-31T07:32:10.327Z,53.7
2018-08-31T07:33:00.190Z,53.9
2018-08-31T07:33:50.013Z,54
2018-08-31T07:34:41.217Z,54.1
2018-08-31T07:35:30.418Z,54.3
2018-08-31T07:36:22.718Z,54.4
2018-08-31T07:37:11.118Z,54.5
2018-08-31T07:38:01.472Z,54.6
2018-08-31T07:38:51.268Z,54.8
2018-08-31T07:39:41.083Z,54.9
2018-08-31T07:40:30.215Z,55
2018-08-31T07:41:21.137Z,55.1
2018-08-31T07:42:11.497Z,55.3
2018-08-31T07:43:01.315Z,55.4
2018-08-31T07:43:51.868Z,55.5
2018-08-31T07:44:41.408Z,55.6
2018-08-31T07:45:31.412Z,55.8
2018-08-31T07:46:21.457Z,55.9
2018-08-31T07:47:11.937Z,56
2018-08-31T07:48:01.790Z,56.1
2018-08-31T07:48:51.714Z,56.2
2018-08-31T07:49:41.797Z,56.3
2018-08-31T07:50:31.906Z,56.4
2018-08-31T07:51:21.622Z,56.6
2018-08-31T07:52:12.220Z,56.7
2018-08-31T07:53:02.882Z,56.8
2018-08-31T07:53:53.768Z,56.9
2018-08-31T07:54:42.926Z,57
2018-08-31T07:55:32.811Z,57.1
2018-08-31T07:56:22.359Z,57.2
2018-08-31T07:57:12.924Z,57.3
2018-08-31T07:58:02.433Z,57.4
2018-08-31T07:58:52.259Z,57.6
2018-08-31T07:59:43.082Z,57.7
2018-08-31T08:00:32.355Z,57.8
2018-08-31T08:01:23.203Z,58
2018-08-31T08:02:12.423Z,58.1
2018-08-31T08:03:02.317Z,58.3
2018-08-31T08:03:52.340Z,58.4
2018-08-31T08:04:42.398Z,58.5
2018-08-31T08:05:33.732Z,58.6
2018-08-31T08:06:22.885Z,58.7
2018-08-31T08:07:13.501Z,58.8
2018-08-31T08:08:02.926Z,58.9
2018-08-31T08:08:53.546Z,59
2018-08-31T08:09:42.548Z,59.1
2018-08-31T08:10:33.119Z,59.3
2018-08-31T08:11:22.601Z,59.4
2018-08-31T08:12:13.466Z,59.5
2018-08-31T08:13:03.628Z,59.6
2018-08-31T08:13:53.656Z,59.7
2018-08-31T08:14:43.892Z,59.8
2018-08-31T08:15:34.384Z,59.8
2018-08-31T08:16:24.325Z,59.9
2018-08-31T08:17:13.161Z,60
2018-08-31T08:18:03.690Z,60
2018-08-31T08:18:53.810Z,60.1
2018-08-31T08:19:45.221Z,60.3
2018-08-31T08:20:34.285Z,60.3
2018-08-31T08:21:24.757Z,60.4
2018-08-31T08:22:14.333Z,60.5
2018-08-31T08:23:04.593Z,60.6
2018-08-31T08:23:54.120Z,60.8
2018-08-31T08:24:44.249Z,60.9
2018-08-31T08:25:35.123Z,61
2018-08-31T08:26:25.144Z,61.1
2018-08-31T08:27:15.267Z,61.2
2018-08-31T08:28:04.765Z,61.3
2018-08-31T08:28:54.805Z,61.4
2018-08-31T08:29:45.242Z,61.5
2018-08-31T08:30:35.242Z,61.6
2018-08-31T08:31:25.064Z,61.8
2018-08-31T08:32:15.088Z,61.9
2018-08-31T08:33:04.677Z,62
2018-08-31T08:33:54.474Z,62.1
2018-08-31T08:34:45.000Z,62.2
2018-08-31T08:35:35.936Z,62.3
2018-08-31T08:36:25.402Z,62.4
2018-08-31T08:37:15.499Z,62.4
2018-08-31T08:38:05.337Z,62.5
2018-08-31T08:38:55.434Z,62.6
2018-08-31T08:39:45.915Z,62.6
2018-08-31T08:40:36.044Z,62.8
2018-08-31T08:41:26.089Z,62.8
2018-08-31T08:42:17.344Z,63
2018-08-31T08:43:06.454Z,63.1
2018-08-31T08:43:56.536Z,63.2
2018-08-31T08:44:45.748Z,63.3
2018-08-31T08:45:36.719Z,63.4
2018-08-31T08:46:26.180Z,63.6
2018-08-31T08:47:16.586Z,63.6
2018-08-31T08:48:06.173Z,63.8
2018-08-31T08:48:56.256Z,63.8
2018-08-31T08:49:46.982Z,63.9
2018-08-31T08:50:36.283Z,63.9
2018-08-31T08:51:26.588Z,64
2018-08-31T08:52:16.375Z,64
2018-08-31T08:53:06.943Z,64.1
2018-08-31T08:53:57.584Z,64.2
2018-08-31T08:54:47.338Z,64.3
2018-08-31T08:55:37.190Z,64.4
2018-08-31T08:56:27.221Z,64.4
2018-08-31T08:57:17.314Z,64.5
2018-08-31T08:58:07.390Z,64.6
2018-08-31T09:14:50.121Z,65.9
2018-08-31T09:15:39.172Z,66
2018-08-31T09:16:29.561Z,66
2018-08-31T09:17:20.119Z,66
2018-08-31T09:18:09.942Z,66.1
2018-08-31T09:19:00.014Z,66.1
2018-08-31T09:19:50.578Z,66.2
2018-08-31T09:20:40.380Z,66.3
2018-08-31T09:21:30.446Z,66.4
2018-08-31T09:22:20.275Z,66.6
2018-08-31T09:23:10.286Z,66.6
2018-08-31T09:24:00.141Z,66.7
2018-08-31T09:24:51.758Z,66.8
2018-08-31T09:25:40.533Z,66.8
2018-08-31T09:26:30.813Z,66.9
2018-08-31T09:27:20.710Z,66.9
2018-08-31T09:28:10.957Z,67
2018-08-31T09:29:00.730Z,67
2018-08-31T09:29:50.793Z,67.1
2018-08-31T09:30:40.889Z,67.1
2018-08-31T09:31:31.532Z,67.2
2018-08-31T09:32:20.768Z,67.2
2018-08-31T09:33:10.863Z,67.3
2018-08-31T09:34:01.687Z,67.3
2018-08-31T09:34:51.733Z,67.4
2018-08-31T09:35:42.078Z,67.5
2018-08-31T09:36:30.768Z,67.6
2018-08-31T09:37:20.875Z,67.7
2018-08-31T09:38:11.487Z,67.8
2018-08-31T09:39:00.975Z,67.9
2018-08-31T09:39:52.152Z,67.9
2018-08-31T09:40:41.855Z,68
2018-08-31T09:41:32.064Z,68
2018-08-31T09:42:22.083Z,68.1
2018-08-31T09:43:11.660Z,68.2
2018-08-31T09:44:02.264Z,68.2
2018-08-31T09:44:51.489Z,68.3
2018-08-31T09:45:41.761Z,68.3
2018-08-31T09:46:32.372Z,68.3
2018-08-31T09:47:21.914Z,68.4
2018-08-31T09:48:12.234Z,68.4
2018-08-31T09:49:02.313Z,68.6
2018-08-31T09:49:53.845Z,68.6
2018-08-31T09:50:42.962Z,68.8
2018-08-31T09:51:32.786Z,68.8
2018-08-31T09:52:22.851Z,68.9
2018-08-31T09:53:12.950Z,68.9
2018-08-31T09:54:02.699Z,69
2018-08-31T09:54:51.963Z,69.1
2018-08-31T09:55:43.883Z,69.1
2018-08-31T09:56:32.301Z,69.1
2018-08-31T09:58:09.386Z,69.1
2018-08-31T09:58:51.475Z,69.3
2018-08-31T09:59:24.499Z,69.3
2018-08-31T10:00:15.363Z,69.3
2018-08-31T10:01:06.181Z,69.4
2018-08-31T10:01:55.709Z,69.4
2018-08-31T10:02:45.293Z,69.4
2018-08-31T10:03:35.568Z,69.4
2018-08-31T10:04:25.959Z,69.5
2018-08-31T10:05:16.341Z,69.6
2018-08-31T10:06:05.231Z,69.6
2018-08-31T10:06:54.998Z,69.7
2018-08-31T10:07:45.650Z,69.7
2018-08-31T10:08:36.007Z,69.8
2018-08-31T10:09:26.200Z,69.8
2018-08-31T10:10:16.370Z,69.8
2018-08-31T10:11:06.434Z,69.9
2018-08-31T10:11:55.675Z,69.9
2018-08-31T10:12:46.613Z,70.1
2018-08-31T10:13:36.645Z,70.1
2018-08-31T10:14:26.754Z,70.2
2018-08-31T10:15:16.517Z,70.3
2018-08-31T10:16:06.810Z,70.4
2018-08-31T10:16:56.998Z,70.4
2018-08-31T10:17:46.717Z,70.4
2018-08-31T10:18:36.874Z,70.5
2018-08-31T10:19:27.494Z,70.5
2018-08-31T10:20:17.202Z,70.6
2018-08-31T10:21:07.454Z,70.6
2018-08-31T10:21:57.066Z,70.6
2018-08-31T10:22:47.124Z,70.7
2018-08-31T10:23:37.462Z,70.7
2018-08-31T10:24:27.746Z,70.8
2018-08-31T10:25:17.568Z,70.8
2018-08-31T10:26:08.199Z,70.9
2018-08-31T10:26:56.741Z,71
2018-08-31T10:27:47.758Z,71.1
2018-08-31T10:28:36.971Z,71.1
2018-08-31T10:29:27.920Z,71.1
2018-08-31T10:30:18.095Z,71.2
2018-08-31T10:31:08.199Z,71.3
2018-08-31T10:31:58.021Z,71.3
2018-08-31T10:32:48.133Z,71.4
2018-08-31T10:33:37.655Z,71.5
2018-08-31T10:34:28.346Z,71.6
2018-08-31T10:35:17.783Z,71.6
2018-08-31T10:36:08.648Z,71.6
2018-08-31T10:36:58.186Z,71.7
2018-08-31T10:37:48.621Z,71.7
2018-08-31T10:38:38.613Z,71.8
2018-08-31T10:39:28.365Z,71.8
2018-08-31T10:40:18.549Z,71.8
2018-08-31T10:41:08.535Z,71.9
2018-08-31T10:41:58.570Z,71.9
2018-08-31T10:42:47.798Z,71.9
2018-08-31T10:43:37.595Z,71.9
2018-08-31T10:44:28.432Z,72
2018-08-31T10:45:18.853Z,72
2018-08-31T10:46:08.642Z,72.1
2018-08-31T10:46:59.780Z,72.1
2018-08-31T10:47:49.326Z,72.1
2018-08-31T10:48:39.147Z,72.2
2018-08-31T10:49:29.166Z,72.3
2018-08-31T10:50:19.522Z,72.3
2018-08-31T10:51:09.275Z,72.4
2018-08-31T10:51:59.904Z,72.4
2018-08-31T10:52:49.182Z,72.4
2018-08-31T10:53:38.964Z,72.6
2018-08-31T10:54:30.117Z,72.6
2018-08-31T10:55:19.932Z,72.7
2018-08-31T10:56:09.699Z,72.7
2018-08-31T10:56:59.812Z,72.8
2018-08-31T10:57:49.818Z,72.8
2018-08-31T10:58:39.887Z,72.8
2018-08-31T10:59:30.324Z,72.8
2018-08-31T11:00:19.554Z,72.8
2018-08-31T11:01:09.909Z,72.8
2018-08-31T11:02:00.437Z,72.9
2018-08-31T11:02:50.519Z,72.9
2018-08-31T11:03:41.130Z,72.9
2018-08-31T11:04:30.091Z,72.9
2018-08-31T11:05:19.319Z,72.9
2018-08-31T11:06:10.771Z,72.9
2018-08-31T11:07:00.580Z,72.9
2018-08-31T11:07:50.944Z,72.9
2018-08-31T11:08:40.938Z,72.9
2018-08-31T11:09:30.503Z,73
2018-08-31T11:10:21.080Z,73
2018-08-31T11:12:00.906Z,73.1
2018-08-31T11:12:53.094Z,73.1
2018-08-31T11:13:41.061Z,73.1
2018-08-31T11:14:31.126Z,73.1
2018-08-31T11:15:23.115Z,73.1
2018-08-31T11:16:11.527Z,73.1
2018-08-31T11:17:01.655Z,73.2
2018-08-31T11:17:51.356Z,73.2
2018-08-31T11:18:41.942Z,73.3
2018-08-31T11:19:31.209Z,73.3
2018-08-31T11:20:21.026Z,73.3
2018-08-31T11:21:11.655Z,73.3
2018-08-31T11:22:01.476Z,73.3
2018-08-31T11:22:52.088Z,73.4
2018-08-31T11:23:42.438Z,73.4
2018-08-31T11:24:32.212Z,73.4
2018-08-31T11:25:21.721Z,73.4
2018-08-31T11:26:11.747Z,73.5
2018-08-31T11:27:02.095Z,73.5
2018-08-31T11:27:52.414Z,73.6
2018-08-31T11:28:41.938Z,73.6
2018-08-31T11:29:32.320Z,73.6
2018-08-31T11:30:22.657Z,73.7
2018-08-31T11:31:12.153Z,73.8
2018-08-31T11:32:02.777Z,73.8
2018-08-31T11:32:52.870Z,73.9
2018-08-31T11:33:42.906Z,73.9
2018-08-31T11:35:03.717Z,73.9
2018-08-31T11:35:51.767Z,73.9
2018-08-31T11:36:30.917Z,73.9
2018-08-31T11:37:17.581Z,73.9
2018-08-31T11:37:52.942Z,73.9
2018-08-31T11:38:59.287Z,74
2018-08-31T11:40:23.422Z,73.9
2018-08-31T11:41:13.585Z,73.9
2018-08-31T11:42:03.619Z,73.9
2018-08-31T11:43:22.732Z,73.9
2018-08-31T11:43:43.497Z,73.8
2018-08-31T11:44:33.726Z,73.8
2018-08-31T11:45:23.514Z,73.8
2018-08-31T11:46:13.639Z,73.8
2018-08-31T11:47:03.661Z,73.8
2018-08-31T11:48:09.163Z,73.8
2018-08-31T11:48:44.337Z,73.7
2018-08-31T11:49:33.822Z,73.7
2018-08-31T11:50:23.642Z,73.6
2018-08-31T11:51:13.654Z,73.6
2018-08-31T11:52:04.066Z,73.6
2018-08-31T11:52:54.408Z,73.6
2018-08-31T11:53:43.634Z,73.6
2018-08-31T11:54:34.573Z,73.6
2018-08-31T11:55:25.781Z,73.6
2018-08-31T11:56:14.346Z,73.6
2018-08-31T11:57:03.923Z,73.6
2018-08-31T11:57:54.553Z,73.6
2018-08-31T11:58:44.628Z,73.6
2018-08-31T11:59:34.645Z,73.6
2018-08-31T12:00:24.723Z,73.7
2018-08-31T12:01:15.135Z,73.7
2018-08-31T12:02:06.697Z,73.8
2018-08-31T12:02:54.345Z,73.8